createdAt,value
2018-10-17T00:00:35.982Z,15.97
2018-10-17T00:03:04.511Z,15.07
2018-10-17T00:05:33.011Z,18.23
2018-10-17T00:08:01.535Z,16.47
2018-10-17T00:10:30.057Z,14.67
2018-10-17T00:12:58.519Z,14.03
2018-10-17T00:15:27.048Z,13.63
2018-10-17T00:17:55.489Z,14.73
2018-10-17T00:20:23.950Z,13.50
2018-10-17T00:22:52.460Z,15.50
2018-10-17T00:25:20.919Z,14.83
2018-10-17T00:27:49.368Z,15.20
2018-10-17T00:30:17.839Z,14.30
2018-10-17T00:32:46.337Z,12.73
2018-10-17T00:35:14.959Z,18.03
2018-10-17T00:37:43.349Z,11.77
2018-10-17T00:40:11.921Z,13.23
2018-10-17T00:42:40.436Z,18.30
2018-10-17T00:45:09.085Z,21.40
2018-10-17T00:47:37.577Z,24.43
2018-10-17T00:50:06.140Z,19.33
2018-10-17T00:52:34.607Z,23.13
2018-10-17T00:55:03.132Z,21.57
2018-10-17T00:57:31.594Z,22.27
2018-10-17T01:00:00.063Z,20.23
2018-10-17T01:02:28.517Z,16.27
2018-10-17T01:04:57.116Z,15.10
2018-10-17T01:07:25.613Z,19.53
2018-10-17T01:09:54.142Z,16.33
2018-10-17T01:12:22.641Z,19.30
2018-10-17T01:14:51.104Z,15.70
2018-10-17T01:17:19.568Z,15.87
2018-10-17T01:19:48.091Z,18.57
2018-10-17T01:22:16.550Z,13.90
2018-10-17T01:24:45.043Z,15.47
2018-10-17T01:27:13.534Z,18.07
2018-10-17T01:29:42.064Z,19.37
2018-10-17T01:32:10.499Z,18.40
2018-10-17T01:34:39.027Z,17.97
2018-10-17T01:37:07.522Z,21.50
2018-10-17T01:39:35.994Z,14.77
2018-10-17T01:42:05.102Z,18.60
2018-10-17T01:44:33.635Z,15.73
2018-10-17T01:47:02.230Z,16.63
2018-10-17T01:49:30.699Z,17.13
2018-10-17T01:51:59.146Z,17.30
2018-10-17T01:54:27.662Z,14.53
2018-10-17T01:56:56.115Z,18.20
2018-10-17T01:59:24.607Z,14.33
2018-10-17T02:01:53.139Z,19.33
2018-10-17T02:04:21.615Z,14.93
2018-10-17T02:06:50.070Z,15.83
2018-10-17T02:09:18.622Z,17.30
2018-10-17T02:11:47.080Z,17.63
2018-10-17T02:14:15.580Z,17.60
2018-10-17T02:16:44.056Z,15.77
2018-10-17T02:19:12.634Z,18.57
2018-10-17T02:21:41.090Z,17.90
2018-10-17T02:24:09.642Z,17.03
2018-10-17T02:26:38.125Z,18.47
2018-10-17T02:29:06.702Z,19.87
2018-10-17T02:31:35.164Z,20.87
2018-10-17T02:34:03.674Z,20.83
2018-10-17T02:36:32.139Z,18.23
2018-10-17T02:39:00.646Z,17.90
2018-10-17T02:41:29.155Z,21.53
2018-10-17T02:43:57.660Z,18.20
2018-10-17T02:46:26.122Z,18.53
2018-10-17T02:48:54.680Z,18.80
2018-10-17T02:51:23.138Z,17.40
2018-10-17T02:53:51.640Z,21.50
2018-10-17T02:56:20.085Z,20.57
2018-10-17T02:58:48.574Z,17.20
2018-10-17T03:01:17.056Z,20.43
2018-10-17T03:03:45.501Z,20.10
2018-10-17T03:06:14.004Z,19.93
2018-10-17T03:08:42.505Z,21.63
2018-10-17T03:11:11.132Z,16.50
2018-10-17T03:13:39.652Z,16.57
2018-10-17T03:16:08.089Z,19.80
2018-10-17T03:18:36.610Z,24.40
2018-10-17T03:21:05.113Z,20.43
2018-10-17T03:23:33.660Z,22.63
2018-10-17T03:26:02.156Z,23.20
2018-10-17T03:28:30.653Z,20.53
2018-10-17T03:30:59.126Z,22.80
2018-10-17T03:33:27.642Z,25.00
2018-10-17T03:35:56.160Z,24.40
2018-10-17T03:38:24.563Z,28.07
2018-10-17T03:40:53.056Z,22.27
2018-10-17T03:43:21.518Z,25.70
2018-10-17T03:45:49.950Z,23.60
2018-10-17T03:48:18.564Z,21.50
2018-10-17T03:50:47.003Z,25.63
2018-10-17T03:53:15.652Z,24.93
2018-10-17T03:55:44.090Z,24.27
2018-10-17T03:58:12.575Z,26.90
2018-10-17T04:00:41.065Z,25.57
2018-10-17T04:03:09.872Z,24.03
2018-10-17T04:05:38.508Z,22.20
2018-10-17T04:08:07.181Z,23.43
2018-10-17T04:10:36.141Z,25.33
2018-10-17T04:13:04.700Z,23.50
2018-10-17T04:15:33.292Z,24.53
2018-10-17T04:18:01.921Z,22.83
2018-10-17T04:20:30.440Z,21.70
2018-10-17T04:22:59.184Z,22.67
2018-10-17T04:25:27.782Z,20.60
2018-10-17T04:27:56.219Z,18.70
2018-10-17T04:30:25.301Z,17.23
2018-10-17T04:32:54.197Z,20.37
2018-10-17T04:35:22.628Z,18.17
2018-10-17T04:37:51.146Z,20.27
2018-10-17T04:40:19.611Z,20.43
2018-10-17T04:42:48.105Z,25.50
2018-10-17T04:45:16.539Z,18.40
2018-10-17T04:47:45.030Z,19.87
2018-10-17T04:50:13.454Z,26.70
2018-10-17T04:52:41.962Z,25.17
2018-10-17T04:55:11.277Z,26.20
2018-10-17T04:57:39.824Z,23.73
2018-10-17T05:00:11.274Z,22.57
2018-10-17T05:02:40.849Z,25.53
2018-10-17T05:05:09.394Z,26.20
2018-10-17T05:07:39.815Z,25.97
2018-10-17T05:10:08.309Z,31.57
2018-10-17T05:12:36.842Z,27.03
2018-10-17T05:15:05.388Z,27.37
2018-10-17T05:17:33.858Z,21.03
2018-10-17T05:20:02.361Z,21.93
2018-10-17T05:22:30.881Z,22.20
2018-10-17T05:24:59.372Z,18.13
2018-10-17T05:27:27.822Z,22.13
2018-10-17T05:29:56.427Z,20.57
2018-10-17T05:32:24.812Z,21.77
2018-10-17T05:34:53.364Z,22.60
2018-10-17T05:37:21.804Z,24.93
2018-10-17T05:39:50.263Z,24.90
2018-10-17T05:42:18.741Z,26.93
2018-10-17T05:44:47.176Z,24.33
2018-10-17T05:47:15.770Z,20.87
2018-10-17T05:49:44.164Z,25.67
2018-10-17T05:52:12.656Z,25.13
2018-10-17T05:54:41.105Z,24.00
2018-10-17T05:57:09.594Z,20.17
2018-10-17T05:59:38.027Z,21.90
2018-10-17T06:02:09.689Z,21.90
2018-10-17T06:04:38.143Z,26.47
2018-10-17T06:07:06.762Z,23.57
2018-10-17T06:09:35.171Z,18.40
2018-10-17T06:12:03.692Z,23.60
2018-10-17T06:14:32.131Z,25.57
2018-10-17T06:17:00.647Z,26.40
2018-10-17T06:19:29.104Z,21.40
2018-10-17T06:21:57.568Z,23.27
2018-10-17T06:24:26.027Z,20.93
2018-10-17T06:26:54.539Z,20.93
2018-10-17T06:29:23.015Z,29.67
2018-10-17T06:31:51.481Z,34.10
2018-10-17T06:34:20.031Z,28.03
2018-10-17T06:36:48.824Z,33.80
2018-10-17T06:39:17.259Z,31.80
2018-10-17T06:41:45.693Z,33.97
2018-10-17T06:44:14.238Z,38.03
2018-10-17T06:46:42.735Z,34.03
2018-10-17T06:49:11.198Z,33.97
2018-10-17T06:51:39.665Z,34.67
2018-10-17T06:54:08.544Z,36.07
2018-10-17T06:56:37.026Z,33.77
2018-10-17T06:59:05.613Z,35.17
2018-10-17T07:01:34.223Z,29.07
2018-10-17T07:04:03.011Z,29.13
2018-10-17T07:06:31.504Z,31.80
2018-10-17T07:08:59.950Z,33.10
2018-10-17T07:11:28.474Z,31.67
2018-10-17T07:13:56.930Z,31.57
2018-10-17T07:16:25.422Z,35.23
2018-10-17T07:18:53.864Z,33.13
2018-10-17T07:21:22.347Z,29.30
2018-10-17T07:23:50.823Z,30.73
2018-10-17T07:26:19.307Z,32.20
2018-10-17T07:28:47.783Z,35.37
2018-10-17T07:31:16.488Z,30.50
2018-10-17T07:33:44.863Z,32.30
2018-10-17T07:36:13.422Z,28.80
2018-10-17T07:38:41.825Z,29.00
2018-10-17T07:41:10.303Z,27.70
2018-10-17T07:43:38.782Z,29.43
2018-10-17T07:46:07.233Z,31.97
2018-10-17T07:48:35.697Z,30.23
2018-10-17T07:51:04.339Z,31.77
2018-10-17T07:53:32.888Z,32.33
2018-10-17T07:56:01.506Z,30.83
2018-10-17T07:58:30.009Z,33.20
2018-10-17T08:00:58.464Z,31.43
2018-10-17T08:03:26.953Z,31.53
2018-10-17T08:05:55.421Z,29.83
2018-10-17T08:08:24.007Z,26.40
2018-10-17T08:10:52.463Z,26.50
2018-10-17T08:13:20.955Z,29.93
2018-10-17T08:15:49.436Z,29.63
2018-10-17T08:18:18.014Z,30.33
2018-10-17T08:20:46.387Z,28.10
2018-10-17T08:23:14.863Z,29.77
2018-10-17T08:25:43.327Z,27.67
2018-10-17T08:28:11.813Z,32.20
2018-10-17T08:30:40.273Z,30.67
2018-10-17T08:33:08.806Z,26.03
2018-10-17T08:35:37.352Z,33.60
2018-10-17T08:38:05.872Z,32.10
2018-10-17T08:40:34.257Z,28.67
2018-10-17T08:43:02.705Z,32.00
2018-10-17T08:45:31.147Z,33.80
2018-10-17T08:47:59.627Z,32.80
2018-10-17T08:50:28.108Z,31.00
2018-10-17T08:52:56.586Z,35.17
2018-10-17T08:55:25.030Z,32.17
2018-10-17T08:57:53.597Z,27.73
2018-10-17T09:00:22.475Z,27.07
2018-10-17T09:02:50.907Z,30.40
2018-10-17T09:05:19.346Z,25.40
2018-10-17T09:07:47.860Z,28.30
2018-10-17T09:10:16.387Z,25.83
2018-10-17T09:12:44.870Z,26.93
2018-10-17T09:15:13.319Z,27.00
2018-10-17T09:17:41.803Z,24.97
2018-10-17T09:20:11.025Z,26.30
2018-10-17T09:22:39.316Z,25.67
2018-10-17T09:25:07.928Z,23.57
2018-10-17T09:27:36.562Z,26.03
2018-10-17T09:30:06.216Z,23.67
2018-10-17T09:32:34.555Z,24.20
2018-10-17T09:35:03.082Z,24.27
2018-10-17T09:37:31.531Z,24.30
2018-10-17T09:40:00.047Z,21.27
2018-10-17T09:42:28.487Z,20.83
2018-10-17T09:44:56.930Z,21.33
2018-10-17T09:47:25.422Z,24.33
2018-10-17T09:49:53.856Z,25.37
2018-10-17T09:52:22.397Z,20.07
2018-10-17T09:54:50.851Z,19.73
2018-10-17T09:57:19.350Z,18.53
2018-10-17T09:59:47.888Z,17.10
2018-10-17T10:02:16.432Z,21.47
2018-10-17T10:04:44.835Z,18.23
2018-10-17T10:07:13.321Z,18.67
2018-10-17T10:09:41.779Z,20.93
2018-10-17T10:12:10.312Z,18.60
2018-10-17T10:14:38.730Z,22.33
2018-10-17T10:17:07.274Z,17.07
2018-10-17T10:19:35.698Z,17.50
2018-10-17T10:22:05.248Z,19.30
2018-10-17T10:24:33.813Z,18.70
2018-10-17T10:27:08.394Z,18.03
2018-10-17T10:29:36.855Z,19.37
2018-10-17T10:32:05.595Z,20.10
2018-10-17T10:34:34.147Z,18.67
2018-10-17T10:37:03.687Z,19.70
2018-10-17T10:39:32.178Z,19.60
2018-10-17T10:42:07.879Z,18.47
2018-10-17T10:44:36.295Z,17.77
2018-10-17T10:47:05.101Z,19.13
2018-10-17T10:49:33.769Z,18.13
2018-10-17T10:52:02.322Z,13.90
2018-10-17T10:54:30.839Z,17.70
2018-10-17T10:56:59.372Z,16.90
2018-10-17T10:59:27.875Z,17.10
2018-10-17T11:01:56.317Z,16.13
2018-10-17T11:04:24.797Z,17.47
2018-10-17T11:06:53.269Z,15.63
2018-10-17T11:09:21.758Z,16.27
2018-10-17T11:11:50.207Z,15.23
2018-10-17T11:14:19.194Z,17.37
2018-10-17T11:16:47.553Z,15.20
2018-10-17T11:19:16.178Z,14.70
2018-10-17T11:21:44.782Z,18.83
2018-10-17T11:24:13.335Z,17.97
2018-10-17T11:26:41.908Z,16.87
2018-10-17T11:29:10.508Z,21.80
2018-10-17T11:31:39.062Z,17.13
2018-10-17T11:34:07.711Z,13.87
2018-10-17T11:36:36.254Z,15.38
2018-10-17T11:39:07.587Z,14.00
2018-10-17T11:41:36.187Z,15.93
2018-10-17T11:44:04.872Z,15.60
2018-10-17T11:46:33.838Z,15.63
2018-10-17T11:49:02.290Z,18.05
2018-10-17T11:51:30.757Z,19.77
2018-10-17T11:54:00.658Z,14.90
2018-10-17T11:56:29.159Z,12.93
2018-10-17T11:58:57.677Z,16.02
2018-10-17T12:01:27.931Z,16.48
2018-10-17T12:03:56.603Z,15.58
2018-10-17T12:06:25.057Z,15.32
2018-10-17T12:08:53.563Z,11.20
2018-10-17T12:11:22.136Z,14.75
2018-10-17T12:13:50.609Z,16.25
2018-10-17T12:16:19.123Z,15.78
2018-10-17T12:18:47.685Z,14.30
2018-10-17T12:21:16.240Z,14.33
2018-10-17T12:23:44.655Z,16.90
2018-10-17T12:26:13.137Z,19.27
2018-10-17T12:28:41.619Z,13.80
2018-10-17T12:31:10.118Z,13.43
2018-10-17T12:33:38.656Z,12.78
2018-10-17T12:36:07.138Z,17.07
2018-10-17T12:38:35.614Z,17.07
2018-10-17T12:41:04.268Z,11.48
2018-10-17T12:43:32.614Z,14.40
2018-10-17T12:46:01.938Z,14.25
2018-10-17T12:48:30.478Z,11.48
2018-10-17T12:50:58.927Z,10.68
2018-10-17T12:53:27.448Z,12.28
2018-10-17T12:55:55.953Z,13.25
2018-10-17T12:58:24.469Z,13.50
2018-10-17T13:00:53.237Z,12.30
2018-10-17T13:03:21.748Z,14.03
2018-10-17T13:05:50.215Z,14.50
2018-10-17T13:08:18.738Z,12.50
2018-10-17T13:10:47.184Z,14.68
2018-10-17T13:13:15.811Z,13.05
2018-10-17T13:15:44.270Z,11.48
2018-10-17T13:18:12.776Z,10.75
2018-10-17T13:20:41.271Z,12.13
2018-10-17T13:23:09.797Z,9.98
2018-10-17T13:25:38.252Z,11.80
2018-10-17T13:28:06.770Z,10.13
2018-10-17T13:30:35.226Z,16.73
2018-10-17T13:33:03.748Z,15.88
2018-10-17T13:35:32.250Z,11.55
2018-10-17T13:38:00.781Z,11.68
2018-10-17T13:40:29.387Z,11.93
2018-10-17T13:42:57.946Z,15.63
2018-10-17T13:45:26.384Z,10.28
2018-10-17T13:47:54.910Z,10.98
2018-10-17T13:50:23.357Z,12.43
2018-10-17T13:52:51.904Z,10.98
2018-10-17T13:55:20.484Z,12.15
2018-10-17T13:57:48.904Z,12.15
2018-10-17T14:00:17.361Z,10.10
2018-10-17T14:02:45.829Z,12.68
2018-10-17T14:05:14.517Z,17.95
2018-10-17T14:07:42.996Z,10.85
2018-10-17T14:10:11.445Z,9.25
2018-10-17T14:12:39.946Z,9.50
2018-10-17T14:15:08.449Z,11.50
2018-10-17T14:17:36.980Z,10.20
2018-10-17T14:20:05.976Z,11.55
2018-10-17T14:22:34.871Z,11.28
2018-10-17T14:25:03.468Z,11.35
2018-10-17T14:27:32.038Z,11.43
2018-10-17T14:30:00.879Z,11.15
2018-10-17T14:32:29.344Z,12.55
2018-10-17T14:34:58.311Z,9.88
2018-10-17T14:37:26.867Z,11.28
2018-10-17T14:39:55.246Z,11.63
2018-10-17T14:42:23.728Z,18.20
2018-10-17T14:44:52.225Z,15.08
2018-10-17T14:47:20.663Z,14.73
2018-10-17T14:49:49.109Z,11.75
2018-10-17T14:52:17.629Z,13.43
2018-10-17T14:54:46.155Z,9.43
2018-10-17T14:57:14.710Z,9.20
2018-10-17T14:59:43.151Z,13.47
2018-10-17T15:02:11.684Z,10.57
2018-10-17T15:04:40.180Z,12.17
2018-10-17T15:07:08.696Z,9.60
2018-10-17T15:09:37.168Z,9.80
2018-10-17T15:12:05.811Z,12.90
2018-10-17T15:14:34.198Z,11.07
2018-10-17T15:17:02.790Z,10.30
2018-10-17T15:19:31.194Z,11.93
2018-10-17T15:21:59.718Z,13.13
2018-10-17T15:24:28.251Z,11.13
2018-10-17T15:26:56.829Z,11.87
2018-10-17T15:29:25.255Z,11.47
2018-10-17T15:31:53.763Z,17.60
2018-10-17T15:34:22.306Z,13.03
2018-10-17T15:36:50.895Z,16.33
2018-10-17T15:39:19.277Z,10.40
2018-10-17T15:41:47.808Z,13.00
2018-10-17T15:44:16.282Z,14.40
2018-10-17T15:46:44.779Z,14.20
2018-10-17T15:49:13.298Z,13.27
2018-10-17T15:51:42.198Z,15.40
2018-10-17T15:54:10.794Z,14.13
2018-10-17T15:56:39.221Z,13.53
2018-10-17T15:59:07.689Z,11.30
2018-10-17T16:01:36.114Z,10.53
2018-10-17T16:04:04.658Z,16.60
2018-10-17T16:06:33.119Z,11.17
2018-10-17T16:09:01.596Z,15.37
2018-10-17T16:11:30.106Z,17.23
2018-10-17T16:13:58.655Z,12.33
2018-10-17T16:16:27.065Z,16.17
2018-10-17T16:18:58.948Z,13.07
2018-10-17T16:21:27.381Z,13.50
2018-10-17T16:23:56.084Z,17.07
2018-10-17T16:26:24.869Z,13.03
2018-10-17T16:28:53.384Z,15.43
2018-10-17T16:31:21.901Z,13.00
2018-10-17T16:33:51.251Z,15.47
2018-10-17T16:36:19.764Z,13.17
2018-10-17T16:38:48.296Z,14.13
2018-10-17T16:41:16.762Z,19.73
2018-10-17T16:43:45.247Z,15.93
2018-10-17T16:46:13.743Z,15.27
2018-10-17T16:48:42.334Z,15.33
2018-10-17T16:51:10.805Z,18.57
2018-10-17T16:53:39.292Z,22.20
2018-10-17T16:56:08.378Z,15.63
2018-10-17T16:58:36.896Z,25.07
2018-10-17T17:01:05.522Z,25.53
2018-10-17T17:03:34.070Z,23.10
2018-10-17T17:06:03.355Z,20.40
2018-10-17T17:08:31.884Z,26.40
2018-10-17T17:11:00.333Z,33.27
2018-10-17T17:13:28.818Z,23.77
2018-10-17T17:15:57.284Z,27.90
2018-10-17T17:18:25.769Z,23.17
2018-10-17T17:20:54.235Z,19.63
2018-10-17T17:23:22.776Z,23.53
2018-10-17T17:25:51.570Z,24.83
2018-10-17T17:28:20.075Z,24.60
2018-10-17T17:30:48.515Z,25.13
2018-10-17T17:33:17.361Z,28.47
2018-10-17T17:35:45.770Z,29.17
2018-10-17T17:38:14.290Z,29.00
2018-10-17T17:40:42.742Z,25.13
2018-10-17T17:43:11.335Z,19.83
2018-10-17T17:45:40.056Z,19.07
2018-10-17T17:48:08.597Z,25.10
2018-10-17T17:50:37.213Z,20.00
2018-10-17T17:53:05.807Z,22.57
2018-10-17T17:55:34.357Z,26.70
2018-10-17T17:58:02.969Z,22.03
2018-10-17T18:00:31.594Z,23.10
2018-10-17T18:03:00.164Z,28.20
2018-10-17T18:05:28.797Z,20.53
2018-10-17T18:07:57.193Z,20.87
2018-10-17T18:10:29.971Z,18.20
2018-10-17T18:12:58.843Z,19.50
2018-10-17T18:15:27.835Z,16.70
2018-10-17T18:17:56.282Z,23.63
2018-10-17T18:20:24.807Z,18.93
2018-10-17T18:22:53.695Z,18.37
2018-10-17T18:25:22.469Z,17.13
2018-10-17T18:27:51.407Z,20.43
2018-10-17T18:30:19.886Z,26.17
2018-10-17T18:32:48.343Z,21.20
2018-10-17T18:35:16.870Z,19.37
2018-10-17T18:37:45.334Z,21.73
2018-10-17T18:40:13.867Z,25.03
2018-10-17T18:42:42.319Z,21.57
2018-10-17T18:45:10.830Z,19.97
2018-10-17T18:47:39.287Z,24.13
2018-10-17T18:50:07.987Z,24.50
2018-10-17T18:52:36.572Z,22.80
2018-10-17T18:55:06.101Z,21.13
2018-10-17T18:57:34.567Z,24.40
2018-10-17T19:00:03.123Z,25.10
2018-10-17T19:02:31.571Z,23.70
2018-10-17T19:05:00.038Z,23.63
2018-10-17T19:07:28.516Z,21.20
2018-10-17T19:09:57.010Z,23.67
2018-10-17T19:12:25.540Z,19.27
2018-10-17T19:14:54.095Z,20.80
2018-10-17T19:17:22.579Z,21.43
2018-10-17T19:19:55.207Z,19.30
2018-10-17T19:22:23.694Z,19.47
2018-10-17T19:24:52.381Z,21.90
2018-10-17T19:27:20.872Z,20.70
2018-10-17T19:29:49.880Z,19.90
2018-10-17T19:32:18.394Z,20.37
2018-10-17T19:34:46.954Z,21.83
2018-10-17T19:37:15.431Z,26.17
2018-10-17T19:39:44.040Z,22.70
2018-10-17T19:42:12.515Z,18.63
2018-10-17T19:44:41.057Z,21.57
2018-10-17T19:47:09.603Z,20.10
2018-10-17T19:49:38.108Z,21.97
2018-10-17T19:52:06.655Z,21.33
2018-10-17T19:54:35.145Z,24.07
2018-10-17T19:57:03.638Z,19.50
2018-10-17T19:59:32.126Z,20.27
2018-10-17T20:02:00.654Z,20.47
2018-10-17T20:04:29.168Z,21.77
2018-10-17T20:06:57.950Z,19.20
2018-10-17T20:09:26.518Z,24.27
2018-10-17T20:11:54.985Z,23.20
2018-10-17T20:14:23.552Z,25.30
2018-10-17T20:16:52.025Z,22.33
2018-10-17T20:19:20.570Z,25.80
2018-10-17T20:21:49.066Z,30.07
2018-10-17T20:24:17.587Z,24.50
2018-10-17T20:26:46.074Z,23.77
2018-10-17T20:29:14.544Z,26.17
2018-10-17T20:31:43.013Z,22.33
2018-10-17T20:34:11.559Z,18.47
2018-10-17T20:36:40.083Z,18.03
2018-10-17T20:39:12.130Z,20.63
2018-10-17T20:41:40.798Z,22.63
2018-10-17T20:44:09.959Z,20.23
2018-10-17T20:46:38.497Z,20.03
2018-10-17T20:49:07.144Z,19.87
2018-10-17T20:51:35.606Z,17.80
2018-10-17T20:54:04.184Z,23.13
2018-10-17T20:56:32.702Z,21.10
2018-10-17T20:59:01.214Z,21.40
2018-10-17T21:01:29.762Z,20.27
2018-10-17T21:03:58.319Z,30.63
2018-10-17T21:06:26.759Z,25.83
2018-10-17T21:08:55.280Z,24.43
2018-10-17T21:11:23.833Z,27.17
2018-10-17T21:13:52.277Z,22.03
2018-10-17T21:16:20.729Z,22.23
2018-10-17T21:18:49.328Z,20.93
2018-10-17T21:21:17.705Z,21.50
2018-10-17T21:23:46.251Z,20.90
2018-10-17T21:26:14.822Z,21.07
2018-10-17T21:28:43.246Z,17.67
2018-10-17T21:31:11.736Z,22.13
2018-10-17T21:33:40.302Z,24.70
2018-10-17T21:36:08.807Z,20.83
2018-10-17T21:38:37.419Z,21.43
2018-10-17T21:41:05.882Z,22.27
2018-10-17T21:43:34.382Z,20.27
2018-10-17T21:46:02.886Z,20.27
2018-10-17T21:48:31.398Z,22.87
2018-10-17T21:50:59.874Z,21.20
2018-10-17T21:53:28.359Z,24.33
2018-10-17T21:55:56.847Z,24.40
2018-10-17T21:58:25.366Z,21.87
2018-10-17T22:00:53.833Z,20.07
2018-10-17T22:03:22.346Z,22.07
2018-10-17T22:05:50.815Z,20.07
2018-10-17T22:08:19.394Z,23.53
2018-10-17T22:10:47.830Z,24.30
2018-10-17T22:13:16.303Z,26.13
2018-10-17T22:15:44.855Z,24.07
2018-10-17T22:18:13.303Z,25.57
2018-10-17T22:20:41.828Z,26.10
2018-10-17T22:23:10.504Z,26.50
2018-10-17T22:25:39.001Z,25.20
2018-10-17T22:28:07.540Z,27.97
2018-10-17T22:30:36.062Z,25.03
2018-10-17T22:33:04.568Z,21.13
2018-10-17T22:35:33.120Z,19.73
2018-10-17T22:38:01.611Z,21.80
2018-10-17T22:40:30.156Z,19.63
2018-10-17T22:42:58.617Z,18.60
2018-10-17T22:45:27.086Z,18.73
2018-10-17T22:47:55.555Z,20.67
2018-10-17T22:50:24.068Z,20.00
2018-10-17T22:52:52.534Z,21.83
2018-10-17T22:55:21.097Z,24.10
2018-10-17T22:57:49.503Z,28.53
2018-10-17T23:00:18.005Z,27.60
2018-10-17T23:02:46.459Z,22.83
2018-10-17T23:05:14.960Z,22.03
2018-10-17T23:07:43.486Z,20.97
2018-10-17T23:10:12.012Z,18.63
2018-10-17T23:12:40.519Z,19.67
2018-10-17T23:15:11.811Z,22.00
2018-10-17T23:17:40.265Z,19.20
2018-10-17T23:20:09.043Z,21.10
2018-10-17T23:22:37.919Z,18.83
2018-10-17T23:25:07.286Z,19.23
2018-10-17T23:27:35.757Z,19.90
2018-10-17T23:30:04.711Z,19.60
2018-10-17T23:32:33.183Z,19.93
2018-10-17T23:35:01.740Z,21.77
2018-10-17T23:37:30.450Z,20.27
2018-10-17T23:39:58.941Z,21.73
2018-10-17T23:42:27.451Z,22.50
2018-10-17T23:44:56.007Z,19.70
2018-10-17T23:47:24.511Z,20.63
2018-10-17T23:49:53.066Z,22.23
2018-10-17T23:52:21.507Z,24.70
2018-10-17T23:54:49.998Z,25.23
2018-10-17T23:57:18.460Z,29.07
2018-10-17T23:59:46.958Z,26.37
